Terminal Aerodrome Forecast
Issued by NWS Twin Cities, MN

Home | Current Version | Previous Version | Text Only | Print | Product List | Glossary On
Versions: 1 2 3 4 5 6 7 8 9 10 11 12 13 14 15
000
FTUS43 KMPX 231745
TAFSTC
TAF
KSTC 231745Z 2318/2418 30012KT P6SM SKC
     FM240400 29004KT 4SM BR SKC
     FM240600 00000KT 1/4SM FZFG VV003
     FM241500 00000KT P6SM SCT008 BKN015 OVC100=

USA.gov is the U.S. government's official web portal to all federal, state and local government web resources and services.